sensor_id;sensor_type;location;lat;lon;timestamp;temperature;humidity
65470;DHT22;52067;50.710;14.492;2023-02-12T00:00:43;5.30;91.35
65470;DHT22;52067;50.710;14.492;2023-02-12T00:03:08;5.28;91.38
65470;DHT22;52067;50.710;14.492;2023-02-12T00:05:37;5.31;91.48
65470;DHT22;52067;50.710;14.492;2023-02-12T00:08:02;5.37;91.50
65470;DHT22;52067;50.710;14.492;2023-02-12T00:10:27;5.28;91.38
65470;DHT22;52067;50.710;14.492;2023-02-12T00:12:53;5.21;91.38
65470;DHT22;52067;50.710;14.492;2023-02-12T00:15:19;5.26;91.47
65470;DHT22;52067;50.710;14.492;2023-02-12T00:17:46;5.26;91.52
65470;DHT22;52067;50.710;14.492;2023-02-12T00:20:11;5.21;91.47
65470;DHT22;52067;50.710;14.492;2023-02-12T00:22:37;5.27;91.48
65470;DHT22;52067;50.710;14.492;2023-02-12T00:25:02;5.30;91.46
65470;DHT22;52067;50.710;14.492;2023-02-12T00:27:31;5.32;91.37
65470;DHT22;52067;50.710;14.492;2023-02-12T00:29:57;5.30;91.31
65470;DHT22;52067;50.710;14.492;2023-02-12T00:32:22;5.32;91.32
65470;DHT22;52067;50.710;14.492;2023-02-12T00:34:48;5.40;91.27
65470;DHT22;52067;50.710;14.492;2023-02-12T00:37:13;5.37;91.27
65470;DHT22;52067;50.710;14.492;2023-02-12T00:39:39;5.38;91.23
65470;DHT22;52067;50.710;14.492;2023-02-12T00:42:05;5.37;91.27
65470;DHT22;52067;50.710;14.492;2023-02-12T00:44:30;5.37;91.18
65470;DHT22;52067;50.710;14.492;2023-02-12T00:46:56;5.44;91.19
65470;DHT22;52067;50.710;14.492;2023-02-12T00:49:22;5.50;91.18
65470;DHT22;52067;50.710;14.492;2023-02-12T00:51:48;5.48;90.98
65470;DHT22;52067;50.710;14.492;2023-02-12T00:54:13;5.50;90.98
65470;DHT22;52067;50.710;14.492;2023-02-12T00:56:39;5.40;91.06
65470;DHT22;52067;50.710;14.492;2023-02-12T00:59:04;5.45;91.07
65470;DHT22;52067;50.710;14.492;2023-02-12T01:01:29;5.45;91.03
65470;DHT22;52067;50.710;14.492;2023-02-12T01:03:55;5.41;91.01
65470;DHT22;52067;50.710;14.492;2023-02-12T01:06:20;5.45;91.05
65470;DHT22;52067;50.710;14.492;2023-02-12T01:08:49;5.41;91.07
65470;DHT22;52067;50.710;14.492;2023-02-12T01:11:15;5.42;91.03
65470;DHT22;52067;50.710;14.492;2023-02-12T01:13:40;5.41;90.99
65470;DHT22;52067;50.710;14.492;2023-02-12T01:16:13;5.47;91.03
65470;DHT22;52067;50.710;14.492;2023-02-12T01:18:39;5.50;90.91
65470;DHT22;52067;50.710;14.492;2023-02-12T01:21:32;5.37;91.06
65470;DHT22;52067;50.710;14.492;2023-02-12T01:23:59;5.37;91.18
65470;DHT22;52067;50.710;14.492;2023-02-12T01:26:25;5.40;91.24
65470;DHT22;52067;50.710;14.492;2023-02-12T01:28:53;5.41;91.22
65470;DHT22;52067;50.710;14.492;2023-02-12T01:31:21;5.34;91.24
65470;DHT22;52067;50.710;14.492;2023-02-12T01:33:50;5.38;91.32
65470;DHT22;52067;50.710;14.492;2023-02-12T01:36:16;5.40;91.35
65470;DHT22;52067;50.710;14.492;2023-02-12T01:38:41;5.32;91.42
65470;DHT22;52067;50.710;14.492;2023-02-12T01:41:13;5.38;91.48
65470;DHT22;52067;50.710;14.492;2023-02-12T01:43:40;5.37;91.40
65470;DHT22;52067;50.710;14.492;2023-02-12T01:46:07;5.37;91.37
65470;DHT22;52067;50.710;14.492;2023-02-12T01:48:36;5.35;91.39
65470;DHT22;52067;50.710;14.492;2023-02-12T01:51:03;5.38;91.33
65470;DHT22;52067;50.710;14.492;2023-02-12T01:53:34;5.37;91.23
65470;DHT22;52067;50.710;14.492;2023-02-12T01:56:01;5.38;91.19
65470;DHT22;52067;50.710;14.492;2023-02-12T01:58:30;5.38;91.26
65470;DHT22;52067;50.710;14.492;2023-02-12T02:01:01;5.47;91.24
65470;DHT22;52067;50.710;14.492;2023-02-12T02:03:27;5.48;91.16
65470;DHT22;52067;50.710;14.492;2023-02-12T02:05:59;5.54;91.04
65470;DHT22;52067;50.710;14.492;2023-02-12T02:08:25;5.52;91.00
65470;DHT22;52067;50.710;14.492;2023-02-12T02:10:51;5.47;91.04
65470;DHT22;52067;50.710;14.492;2023-02-12T02:13:17;5.51;91.08
65470;DHT22;52067;50.710;14.492;2023-02-12T02:16:09;5.41;91.08
65470;DHT22;52067;50.710;14.492;2023-02-12T02:21:18;5.41;91.18
65470;DHT22;52067;50.710;14.492;2023-02-12T02:34:18;5.30;91.36
65470;DHT22;52067;50.710;14.492;2023-02-12T02:36:50;5.27;91.41
65470;DHT22;52067;50.710;14.492;2023-02-12T02:39:25;5.24;91.45
65470;DHT22;52067;50.710;14.492;2023-02-12T02:41:59;5.31;91.44
65470;DHT22;52067;50.710;14.492;2023-02-12T02:44:34;5.24;91.39
65470;DHT22;52067;50.710;14.492;2023-02-12T02:47:02;5.26;91.43
65470;DHT22;52067;50.710;14.492;2023-02-12T02:49:46;5.27;91.40
65470;DHT22;52067;50.710;14.492;2023-02-12T02:52:19;5.31;91.43
65470;DHT22;52067;50.710;14.492;2023-02-12T02:54:48;5.31;91.42
65470;DHT22;52067;50.710;14.492;2023-02-12T02:57:26;5.32;91.39
65470;DHT22;52067;50.710;14.492;2023-02-12T03:00:03;5.28;91.39
65470;DHT22;52067;50.710;14.492;2023-02-12T03:02:36;5.28;91.42
65470;DHT22;52067;50.710;14.492;2023-02-12T03:05:13;5.26;91.46
65470;DHT22;52067;50.710;14.492;2023-02-12T03:07:55;5.26;91.44
65470;DHT22;52067;50.710;14.492;2023-02-12T03:10:33;5.27;91.49
65470;DHT22;52067;50.710;14.492;2023-02-12T03:13:41;5.24;91.48
65470;DHT22;52067;50.710;14.492;2023-02-12T03:16:08;5.26;91.50
65470;DHT22;52067;50.710;14.492;2023-02-12T03:18:53;5.26;91.50
65470;DHT22;52067;50.710;14.492;2023-02-12T03:21:27;5.35;91.51
65470;DHT22;52067;50.710;14.492;2023-02-12T03:24:10;5.28;91.47
65470;DHT22;52067;50.710;14.492;2023-02-12T03:26:44;5.32;91.41
65470;DHT22;52067;50.710;14.492;2023-02-12T03:29:11;5.31;91.35
65470;DHT22;52067;50.710;14.492;2023-02-12T03:31:47;5.37;91.40
65470;DHT22;52067;50.710;14.492;2023-02-12T03:34:39;5.41;91.40
65470;DHT22;52067;50.710;14.492;2023-02-12T03:37:17;5.37;91.37
65470;DHT22;52067;50.710;14.492;2023-02-12T03:54:17;5.16;91.59
65470;DHT22;52067;50.710;14.492;2023-02-12T03:57:04;5.19;91.60
65470;DHT22;52067;50.710;14.492;2023-02-12T03:59:31;5.21;91.61
65470;DHT22;52067;50.710;14.492;2023-02-12T04:01:59;5.26;91.57
65470;DHT22;52067;50.710;14.492;2023-02-12T04:04:25;5.27;91.54
65470;DHT22;52067;50.710;14.492;2023-02-12T04:06:51;5.26;91.53
65470;DHT22;52067;50.710;14.492;2023-02-12T04:09:18;5.28;91.50
65470;DHT22;52067;50.710;14.492;2023-02-12T04:14:51;5.24;91.49
65470;DHT22;52067;50.710;14.492;2023-02-12T04:30:43;5.23;91.46
65470;DHT22;52067;50.710;14.492;2023-02-12T04:33:15;5.26;91.48
65470;DHT22;52067;50.710;14.492;2023-02-12T04:35:49;5.35;91.37
65470;DHT22;52067;50.710;14.492;2023-02-12T04:38:33;5.30;91.26
65470;DHT22;52067;50.710;14.492;2023-02-12T04:41:00;5.24;91.32
65470;DHT22;52067;50.710;14.492;2023-02-12T04:43:33;5.20;91.41
65470;DHT22;52067;50.710;14.492;2023-02-12T04:46:00;5.21;91.45
65470;DHT22;52067;50.710;14.492;2023-02-12T04:48:25;5.27;91.46
65470;DHT22;52067;50.710;14.492;2023-02-12T04:50:51;5.26;91.40
65470;DHT22;52067;50.710;14.492;2023-02-12T04:53:16;5.20;91.43
65470;DHT22;52067;50.710;14.492;2023-02-12T04:55:42;5.21;91.44
65470;DHT22;52067;50.710;14.492;2023-02-12T04:58:08;5.17;91.50
65470;DHT22;52067;50.710;14.492;2023-02-12T05:00:33;5.24;91.48
65470;DHT22;52067;50.710;14.492;2023-02-12T05:02:59;5.21;91.46
65470;DHT22;52067;50.710;14.492;2023-02-12T05:05:24;5.28;91.41
65470;DHT22;52067;50.710;14.492;2023-02-12T05:07:50;5.31;91.29
65470;DHT22;52067;50.710;14.492;2023-02-12T05:10:15;5.35;91.27
65470;DHT22;52067;50.710;14.492;2023-02-12T05:12:41;5.45;91.23
65470;DHT22;52067;50.710;14.492;2023-02-12T05:15:06;5.32;91.14
65470;DHT22;52067;50.710;14.492;2023-02-12T05:17:32;5.19;91.30
65470;DHT22;52067;50.710;14.492;2023-02-12T05:19:57;5.30;91.34
65470;DHT22;52067;50.710;14.492;2023-02-12T05:22:23;5.28;91.31
65470;DHT22;52067;50.710;14.492;2023-02-12T05:24:48;5.19;91.31
65470;DHT22;52067;50.710;14.492;2023-02-12T05:27:14;5.21;91.41
65470;DHT22;52067;50.710;14.492;2023-02-12T05:29:39;5.17;91.46
65470;DHT22;52067;50.710;14.492;2023-02-12T05:32:05;5.21;91.48
65470;DHT22;52067;50.710;14.492;2023-02-12T05:34:31;5.14;91.51
65470;DHT22;52067;50.710;14.492;2023-02-12T05:36:56;5.26;91.49
65470;DHT22;52067;50.710;14.492;2023-02-12T05:39:22;5.28;91.51
65470;DHT22;52067;50.710;14.492;2023-02-12T05:41:47;5.26;91.34
65470;DHT22;52067;50.710;14.492;2023-02-12T05:44:12;5.28;91.35
65470;DHT22;52067;50.710;14.492;2023-02-12T05:46:40;5.37;91.36
65470;DHT22;52067;50.710;14.492;2023-02-12T05:49:06;5.35;91.23
65470;DHT22;52067;50.710;14.492;2023-02-12T05:51:32;5.38;91.26
65470;DHT22;52067;50.710;14.492;2023-02-12T05:54:01;5.35;91.25
65470;DHT22;52067;50.710;14.492;2023-02-12T05:56:33;5.28;91.30
65470;DHT22;52067;50.710;14.492;2023-02-12T05:59:01;5.32;91.36
65470;DHT22;52067;50.710;14.492;2023-02-12T06:01:37;5.32;91.30
65470;DHT22;52067;50.710;14.492;2023-02-12T06:04:04;5.27;91.29
65470;DHT22;52067;50.710;14.492;2023-02-12T06:06:31;5.31;91.30
65470;DHT22;52067;50.710;14.492;2023-02-12T06:08:57;5.28;91.22
65470;DHT22;52067;50.710;14.492;2023-02-12T06:11:23;5.21;91.34
65470;DHT22;52067;50.710;14.492;2023-02-12T06:13:49;5.16;91.37
65470;DHT22;52067;50.710;14.492;2023-02-12T06:16:24;5.16;91.36
65470;DHT22;52067;50.710;14.492;2023-02-12T06:18:50;5.24;91.41
65470;DHT22;52067;50.710;14.492;2023-02-12T06:21:17;5.30;91.39
65470;DHT22;52067;50.710;14.492;2023-02-12T06:23:42;5.31;91.34
65470;DHT22;52067;50.710;14.492;2023-02-12T06:26:08;5.34;91.30
65470;DHT22;52067;50.710;14.492;2023-02-12T06:28:34;5.34;91.25
65470;DHT22;52067;50.710;14.492;2023-02-12T06:30:59;5.37;91.26
65470;DHT22;52067;50.710;14.492;2023-02-12T06:33:25;5.30;91.25
65470;DHT22;52067;50.710;14.492;2023-02-12T06:35:50;5.37;91.19
65470;DHT22;52067;50.710;14.492;2023-02-12T06:38:16;5.32;91.14
65470;DHT22;52067;50.710;14.492;2023-02-12T06:40:41;5.27;91.15
65470;DHT22;52067;50.710;14.492;2023-02-12T06:43:07;5.28;91.17
65470;DHT22;52067;50.710;14.492;2023-02-12T06:45:32;5.37;91.17
65470;DHT22;52067;50.710;14.492;2023-02-12T06:47:58;5.45;91.15
65470;DHT22;52067;50.710;14.492;2023-02-12T06:50:24;5.47;90.94
65470;DHT22;52067;50.710;14.492;2023-02-12T06:52:50;5.52;90.90
65470;DHT22;52067;50.710;14.492;2023-02-12T06:55:15;5.42;90.93
65470;DHT22;52067;50.710;14.492;2023-02-12T06:57:41;5.48;91.02
65470;DHT22;52067;50.710;14.492;2023-02-12T07:00:07;5.38;91.07
65470;DHT22;52067;50.710;14.492;2023-02-12T07:02:33;5.20;91.04
65470;DHT22;52067;50.710;14.492;2023-02-12T07:04:58;5.26;91.20
65470;DHT22;52067;50.710;14.492;2023-02-12T07:07:24;5.27;91.12
65470;DHT22;52067;50.710;14.492;2023-02-12T07:09:49;5.37;91.22
65470;DHT22;52067;50.710;14.492;2023-02-12T07:12:15;5.44;91.02
65470;DHT22;52067;50.710;14.492;2023-02-12T07:14:40;5.37;90.94
65470;DHT22;52067;50.710;14.492;2023-02-12T07:17:05;5.31;90.82
65470;DHT22;52067;50.710;14.492;2023-02-12T07:19:32;5.44;91.12
65470;DHT22;52067;50.710;14.492;2023-02-12T07:21:58;5.44;90.96
65470;DHT22;52067;50.710;14.492;2023-02-12T07:24:23;5.44;90.95
65470;DHT22;52067;50.710;14.492;2023-02-12T07:26:49;5.52;90.87
65470;DHT22;52067;50.710;14.492;2023-02-12T07:29:14;5.66;90.74
65470;DHT22;52067;50.710;14.492;2023-02-12T07:31:40;5.45;91.07
65470;DHT22;52067;50.710;14.492;2023-02-12T07:34:05;5.47;91.26
65470;DHT22;52067;50.710;14.492;2023-02-12T07:36:31;5.73;91.13
65470;DHT22;52067;50.710;14.492;2023-02-12T07:38:58;5.88;90.88
65470;DHT22;52067;50.710;14.492;2023-02-12T07:41:26;5.96;90.57
65470;DHT22;52067;50.710;14.492;2023-02-12T07:44:03;5.59;90.42
65470;DHT22;52067;50.710;14.492;2023-02-12T07:46:36;5.75;90.44
65470;DHT22;52067;50.710;14.492;2023-02-12T07:49:04;5.85;90.39
65470;DHT22;52067;50.710;14.492;2023-02-12T07:51:31;5.85;90.41
65470;DHT22;52067;50.710;14.492;2023-02-12T07:54:00;5.86;90.36
65470;DHT22;52067;50.710;14.492;2023-02-12T07:56:28;5.95;90.22
65470;DHT22;52067;50.710;14.492;2023-02-12T07:58:58;5.95;90.25
65470;DHT22;52067;50.710;14.492;2023-02-12T08:01:25;5.95;90.28
65470;DHT22;52067;50.710;14.492;2023-02-12T08:03:52;6.07;90.08
65470;DHT22;52067;50.710;14.492;2023-02-12T08:06:22;6.07;89.88
65470;DHT22;52067;50.710;14.492;2023-02-12T08:08:52;6.06;90.02
65470;DHT22;52067;50.710;14.492;2023-02-12T08:11:18;6.09;90.01
65470;DHT22;52067;50.710;14.492;2023-02-12T08:13:44;6.17;89.97
65470;DHT22;52067;50.710;14.492;2023-02-12T08:16:18;6.21;89.92
65470;DHT22;52067;50.710;14.492;2023-02-12T08:18:44;6.29;89.58
65470;DHT22;52067;50.710;14.492;2023-02-12T08:21:15;6.45;89.34
65470;DHT22;52067;50.710;14.492;2023-02-12T08:23:40;6.33;89.26
65470;DHT22;52067;50.710;14.492;2023-02-12T08:28:43;6.45;88.94
65470;DHT22;52067;50.710;14.492;2023-02-12T08:31:14;6.55;88.99
65470;DHT22;52067;50.710;14.492;2023-02-12T08:33:39;6.51;88.85
65470;DHT22;52067;50.710;14.492;2023-02-12T08:36:11;6.67;88.90
65470;DHT22;52067;50.710;14.492;2023-02-12T08:38:37;6.77;88.70
65470;DHT22;52067;50.710;14.492;2023-02-12T08:41:20;6.84;88.31
65470;DHT22;52067;50.710;14.492;2023-02-12T08:43:47;6.93;88.01
65470;DHT22;52067;50.710;14.492;2023-02-12T08:46:19;6.87;88.05
65470;DHT22;52067;50.710;14.492;2023-02-12T08:48:45;6.69;88.25
65470;DHT22;52067;50.710;14.492;2023-02-12T08:51:18;6.79;88.25
65470;DHT22;52067;50.710;14.492;2023-02-12T08:53:46;6.57;88.15
65470;DHT22;52067;50.710;14.492;2023-02-12T08:56:14;6.68;88.41
65470;DHT22;52067;50.710;14.492;2023-02-12T08:58:40;6.65;88.27
65470;DHT22;52067;50.710;14.492;2023-02-12T09:01:11;6.75;87.89
65470;DHT22;52067;50.710;14.492;2023-02-12T09:03:38;6.44;88.59
65470;DHT22;52067;50.710;14.492;2023-02-12T09:06:04;6.72;88.35
65470;DHT22;52067;50.710;14.492;2023-02-12T09:08:30;6.67;87.99
65470;DHT22;52067;50.710;14.492;2023-02-12T09:10:56;6.65;88.22
65470;DHT22;52067;50.710;14.492;2023-02-12T09:13:22;6.61;88.07
65470;DHT22;52067;50.710;14.492;2023-02-12T09:15:47;6.67;88.20
65470;DHT22;52067;50.710;14.492;2023-02-12T09:18:13;6.65;88.16
65470;DHT22;52067;50.710;14.492;2023-02-12T09:20:43;6.65;88.24
65470;DHT22;52067;50.710;14.492;2023-02-12T09:23:12;6.68;89.01
65470;DHT22;52067;50.710;14.492;2023-02-12T09:25:43;6.82;88.13
65470;DHT22;52067;50.710;14.492;2023-02-12T09:28:09;6.89;87.98
65470;DHT22;52067;50.710;14.492;2023-02-12T09:30:36;6.95;87.64
65470;DHT22;52067;50.710;14.492;2023-02-12T09:33:03;7.00;87.16
65470;DHT22;52067;50.710;14.492;2023-02-12T09:35:28;7.02;87.21
65470;DHT22;52067;50.710;14.492;2023-02-12T09:37:54;7.09;86.99
65470;DHT22;52067;50.710;14.492;2023-02-12T09:45:31;7.03;87.12
65470;DHT22;52067;50.710;14.492;2023-02-12T09:50:47;7.09;86.45
65470;DHT22;52067;50.710;14.492;2023-02-12T09:53:17;6.89;86.79
65470;DHT22;52067;50.710;14.492;2023-02-12T09:55:43;6.84;87.03
65470;DHT22;52067;50.710;14.492;2023-02-12T09:58:34;6.91;86.97
65470;DHT22;52067;50.710;14.492;2023-02-12T10:01:00;7.10;86.67
65470;DHT22;52067;50.710;14.492;2023-02-12T10:03:29;7.22;86.51
65470;DHT22;52067;50.710;14.492;2023-02-12T10:06:02;7.29;86.19
65470;DHT22;52067;50.710;14.492;2023-02-12T10:11:50;7.53;85.39
65470;DHT22;52067;50.710;14.492;2023-02-12T10:25:30;7.60;84.89
65470;DHT22;52067;50.710;14.492;2023-02-12T10:28:08;7.82;84.14
65470;DHT22;52067;50.710;14.492;2023-02-12T10:30:47;7.97;83.71
65470;DHT22;52067;50.710;14.492;2023-02-12T10:33:23;7.98;83.27
65470;DHT22;52067;50.710;14.492;2023-02-12T10:35:53;8.10;83.24
65470;DHT22;52067;50.710;14.492;2023-02-12T10:38:22;8.13;83.38
65470;DHT22;52067;50.710;14.492;2023-02-12T10:40:50;8.05;83.30
65470;DHT22;52067;50.710;14.492;2023-02-12T10:43:15;8.21;81.71
65470;DHT22;52067;50.710;14.492;2023-02-12T10:45:42;8.22;81.89
65470;DHT22;52067;50.710;14.492;2023-02-12T10:48:21;8.52;81.13
65470;DHT22;52067;50.710;14.492;2023-02-12T10:53:36;8.09;81.18
65470;DHT22;52067;50.710;14.492;2023-02-12T10:58:49;8.42;79.90
65470;DHT22;52067;50.710;14.492;2023-02-12T11:01:22;8.30;81.26
65470;DHT22;52067;50.710;14.492;2023-02-12T11:03:50;8.33;79.83
65470;DHT22;52067;50.710;14.492;2023-02-12T11:06:19;8.54;80.52
65470;DHT22;52067;50.710;14.492;2023-02-12T11:08:45;8.63;79.26
65470;DHT22;52067;50.710;14.492;2023-02-12T11:11:13;8.45;79.14
65470;DHT22;52067;50.710;14.492;2023-02-12T11:13:44;8.28;80.12
65470;DHT22;52067;50.710;14.492;2023-02-12T11:16:11;8.29;80.69
65470;DHT22;52067;50.710;14.492;2023-02-12T11:18:37;8.30;80.32
65470;DHT22;52067;50.710;14.492;2023-02-12T11:21:10;8.16;78.55
65470;DHT22;52067;50.710;14.492;2023-02-12T11:26:04;8.10;79.68
65470;DHT22;52067;50.710;14.492;2023-02-12T11:28:32;8.10;81.13
65470;DHT22;52067;50.710;14.492;2023-02-12T11:31:03;8.24;81.18
65470;DHT22;52067;50.710;14.492;2023-02-12T11:33:41;8.03;80.96
65470;DHT22;52067;50.710;14.492;2023-02-12T11:36:23;8.16;79.77
65470;DHT22;52067;50.710;14.492;2023-02-12T11:38:54;8.33;79.93
65470;DHT22;52067;50.710;14.492;2023-02-12T11:43:52;8.13;80.14
65470;DHT22;52067;50.710;14.492;2023-02-12T11:46:24;8.09;81.35
65470;DHT22;52067;50.710;14.492;2023-02-12T11:48:51;8.01;80.45
65470;DHT22;52067;50.710;14.492;2023-02-12T11:51:20;8.01;80.79
65470;DHT22;52067;50.710;14.492;2023-02-12T11:53:51;7.91;81.63
65470;DHT22;52067;50.710;14.492;2023-02-12T11:56:18;7.92;82.71
65470;DHT22;52067;50.710;14.492;2023-02-12T11:58:45;8.03;82.23
65470;DHT22;52067;50.710;14.492;2023-02-12T12:01:29;8.03;82.88
65470;DHT22;52067;50.710;14.492;2023-02-12T12:04:02;8.22;82.01
65470;DHT22;52067;50.710;14.492;2023-02-12T12:11:37;7.89;83.39
65470;DHT22;52067;50.710;14.492;2023-02-12T12:17:05;7.95;82.92
65470;DHT22;52067;50.710;14.492;2023-02-12T12:20:11;7.94;82.50
65470;DHT22;52067;50.710;14.492;2023-02-12T12:25:16;8.03;82.58
65470;DHT22;52067;50.710;14.492;2023-02-12T12:33:49;8.16;81.45
65470;DHT22;52067;50.710;14.492;2023-02-12T12:39:26;7.73;82.48
65470;DHT22;52067;50.710;14.492;2023-02-12T12:58:00;8.10;82.62
65470;DHT22;52067;50.710;14.492;2023-02-12T13:07:28;8.18;81.39
65470;DHT22;52067;50.710;14.492;2023-02-12T13:12:35;8.30;82.51
65470;DHT22;52067;50.710;14.492;2023-02-12T13:17:49;8.08;83.19
65470;DHT22;52067;50.710;14.492;2023-02-12T13:20:30;8.06;83.48
65470;DHT22;52067;50.710;14.492;2023-02-12T13:28:49;7.85;83.52
65470;DHT22;52067;50.710;14.492;2023-02-12T13:31:20;7.60;84.23
65470;DHT22;52067;50.710;14.492;2023-02-12T13:33:52;7.53;84.29
65470;DHT22;52067;50.710;14.492;2023-02-12T13:36:19;7.34;84.75
65470;DHT22;52067;50.710;14.492;2023-02-12T13:41:37;7.22;85.49
65470;DHT22;52067;50.710;14.492;2023-02-12T13:44:19;7.29;85.66
65470;DHT22;52067;50.710;14.492;2023-02-12T13:47:31;7.39;85.28
65470;DHT22;52067;50.710;14.492;2023-02-12T13:55:33;7.63;84.83
65470;DHT22;52067;50.710;14.492;2023-02-12T14:01:03;7.66;84.62
65470;DHT22;52067;50.710;14.492;2023-02-12T14:03:29;7.68;84.50
65470;DHT22;52067;50.710;14.492;2023-02-12T14:08:45;7.78;84.29
65470;DHT22;52067;50.710;14.492;2023-02-12T14:11:14;7.87;83.83
65470;DHT22;52067;50.710;14.492;2023-02-12T14:13:52;7.82;83.50
65470;DHT22;52067;50.710;14.492;2023-02-12T14:16:35;7.89;83.18
65470;DHT22;52067;50.710;14.492;2023-02-12T14:24:57;7.70;83.18
65470;DHT22;52067;50.710;14.492;2023-02-12T14:27:35;7.68;83.10
65470;DHT22;52067;50.710;14.492;2023-02-12T14:38:00;7.40;82.94
65470;DHT22;52067;50.710;14.492;2023-02-12T14:40:37;7.36;83.11
65470;DHT22;52067;50.710;14.492;2023-02-12T14:45:51;7.30;82.99
65470;DHT22;52067;50.710;14.492;2023-02-12T14:51:04;7.20;83.76
65470;DHT22;52067;50.710;14.492;2023-02-12T14:53:34;6.98;84.08
65470;DHT22;52067;50.710;14.492;2023-02-12T14:56:03;7.08;84.36
65470;DHT22;52067;50.710;14.492;2023-02-12T14:58:31;7.16;84.10
65470;DHT22;52067;50.710;14.492;2023-02-12T15:00:58;7.18;83.93
65470;DHT22;52067;50.710;14.492;2023-02-12T15:03:39;7.06;84.32
65470;DHT22;52067;50.710;14.492;2023-02-12T15:06:22;7.00;84.59
65470;DHT22;52067;50.710;14.492;2023-02-12T15:08:55;6.96;85.18
65470;DHT22;52067;50.710;14.492;2023-02-12T15:19:42;6.93;86.38
65470;DHT22;52067;50.710;14.492;2023-02-12T15:24:43;7.09;86.14
65470;DHT22;52067;50.710;14.492;2023-02-12T15:27:13;7.18;85.93
65470;DHT22;52067;50.710;14.492;2023-02-12T15:29:40;7.16;85.76
65470;DHT22;52067;50.710;14.492;2023-02-12T15:32:12;7.06;85.58
65470;DHT22;52067;50.710;14.492;2023-02-12T15:34:42;7.02;85.81
65470;DHT22;52067;50.710;14.492;2023-02-12T15:37:19;6.96;86.08
65470;DHT22;52067;50.710;14.492;2023-02-12T15:39:46;6.89;86.67
65470;DHT22;52067;50.710;14.492;2023-02-12T15:44:51;6.78;86.69
65470;DHT22;52067;50.710;14.492;2023-02-12T15:47:17;6.75;86.84
65470;DHT22;52067;50.710;14.492;2023-02-12T15:49:48;6.60;87.30
65470;DHT22;52067;50.710;14.492;2023-02-12T15:54:39;6.61;87.40
65470;DHT22;52067;50.710;14.492;2023-02-12T15:57:09;6.57;87.38
65470;DHT22;52067;50.710;14.492;2023-02-12T15:59:35;6.55;87.30
65470;DHT22;52067;50.710;14.492;2023-02-12T16:02:02;6.55;87.37
65470;DHT22;52067;50.710;14.492;2023-02-12T16:04:34;6.52;87.38
65470;DHT22;52067;50.710;14.492;2023-02-12T16:07:06;6.24;87.87
65470;DHT22;52067;50.710;14.492;2023-02-12T16:09:33;6.14;88.33
65470;DHT22;52067;50.710;14.492;2023-02-12T16:12:02;6.14;88.60
65470;DHT22;52067;50.710;14.492;2023-02-12T16:14:37;6.10;88.48
65470;DHT22;52067;50.710;14.492;2023-02-12T16:17:20;6.17;88.05
65470;DHT22;52067;50.710;14.492;2023-02-12T16:22:26;6.06;87.84
65470;DHT22;52067;50.710;14.492;2023-02-12T16:24:53;5.98;89.11
65470;DHT22;52067;50.710;14.492;2023-02-12T16:27:26;6.03;89.46
65470;DHT22;52067;50.710;14.492;2023-02-12T16:29:59;5.92;88.63
65470;DHT22;52067;50.710;14.492;2023-02-12T16:32:39;5.86;89.26
65470;DHT22;52067;50.710;14.492;2023-02-12T16:47:49;6.00;89.13
65470;DHT22;52067;50.710;14.492;2023-02-12T16:50:20;6.00;88.35
65470;DHT22;52067;50.710;14.492;2023-02-12T16:52:48;5.95;87.43
65470;DHT22;52067;50.710;14.492;2023-02-12T16:55:15;5.86;87.49
65470;DHT22;52067;50.710;14.492;2023-02-12T16:57:42;5.86;87.36
65470;DHT22;52067;50.710;14.492;2023-02-12T17:00:10;5.66;87.68
65470;DHT22;52067;50.710;14.492;2023-02-12T17:02:36;5.72;87.69
65470;DHT22;52067;50.710;14.492;2023-02-12T17:05:03;5.55;88.01
65470;DHT22;52067;50.710;14.492;2023-02-12T17:07:32;5.68;87.65
65470;DHT22;52067;50.710;14.492;2023-02-12T17:09:58;5.69;87.44
65470;DHT22;52067;50.710;14.492;2023-02-12T17:12:23;5.76;87.34
65470;DHT22;52067;50.710;14.492;2023-02-12T17:14:49;5.78;87.23
65470;DHT22;52067;50.710;14.492;2023-02-12T17:17:14;5.72;87.69
65470;DHT22;52067;50.710;14.492;2023-02-12T17:19:40;5.66;87.50
65470;DHT22;52067;50.710;14.492;2023-02-12T17:22:16;5.24;89.07
65470;DHT22;52067;50.710;14.492;2023-02-12T17:24:42;5.35;89.26
65470;DHT22;52067;50.710;14.492;2023-02-12T17:27:08;5.50;88.82
65470;DHT22;52067;50.710;14.492;2023-02-12T17:29:35;5.61;88.29
65470;DHT22;52067;50.710;14.492;2023-02-12T17:32:01;5.52;88.39
65470;DHT22;52067;50.710;14.492;2023-02-12T17:34:26;5.61;88.28
65470;DHT22;52067;50.710;14.492;2023-02-12T17:36:52;5.37;88.21
65470;DHT22;52067;50.710;14.492;2023-02-12T17:39:17;5.41;88.59
65470;DHT22;52067;50.710;14.492;2023-02-12T17:41:43;5.37;88.58
65470;DHT22;52067;50.710;14.492;2023-02-12T17:44:10;5.06;89.65
65470;DHT22;52067;50.710;14.492;2023-02-12T17:46:37;5.17;89.35
65470;DHT22;52067;50.710;14.492;2023-02-12T17:49:03;5.35;89.18
65470;DHT22;52067;50.710;14.492;2023-02-12T17:51:29;5.23;89.00
65470;DHT22;52067;50.710;14.492;2023-02-12T17:53:54;4.96;90.18
65470;DHT22;52067;50.710;14.492;2023-02-12T17:56:22;4.79;90.57
65470;DHT22;52067;50.710;14.492;2023-02-12T17:58:50;5.01;90.52
65470;DHT22;52067;50.710;14.492;2023-02-12T18:01:17;5.03;89.97
65470;DHT22;52067;50.710;14.492;2023-02-12T18:03:43;5.17;89.97
65470;DHT22;52067;50.710;14.492;2023-02-12T18:06:09;5.00;89.57
65470;DHT22;52067;50.710;14.492;2023-02-12T18:08:38;5.07;89.65
65470;DHT22;52067;50.710;14.492;2023-02-12T18:11:05;5.09;89.46
65470;DHT22;52067;50.710;14.492;2023-02-12T18:13:32;5.03;89.78
65470;DHT22;52067;50.710;14.492;2023-02-12T18:15:58;5.00;90.01
65470;DHT22;52067;50.710;14.492;2023-02-12T18:18:23;5.19;90.32
65470;DHT22;52067;50.710;14.492;2023-02-12T18:20:48;5.03;90.42
65470;DHT22;52067;50.710;14.492;2023-02-12T18:23:14;4.79;90.35
65470;DHT22;52067;50.710;14.492;2023-02-12T18:25:41;4.94;90.10
65470;DHT22;52067;50.710;14.492;2023-02-12T18:28:06;4.94;89.84
65470;DHT22;52067;50.710;14.492;2023-02-12T18:30:32;5.07;89.57
65470;DHT22;52067;50.710;14.492;2023-02-12T18:32:57;5.04;89.60
65470;DHT22;52067;50.710;14.492;2023-02-12T18:35:23;4.99;89.15
65470;DHT22;52067;50.710;14.492;2023-02-12T18:37:48;5.10;88.91
65470;DHT22;52067;50.710;14.492;2023-02-12T18:40:14;5.13;88.69
65470;DHT22;52067;50.710;14.492;2023-02-12T18:42:39;5.11;88.86
65470;DHT22;52067;50.710;14.492;2023-02-12T18:45:05;5.14;88.65
65470;DHT22;52067;50.710;14.492;2023-02-12T18:47:31;5.14;88.38
65470;DHT22;52067;50.710;14.492;2023-02-12T18:49:57;5.16;87.80
65470;DHT22;52067;50.710;14.492;2023-02-12T18:52:23;5.23;87.68
65470;DHT22;52067;50.710;14.492;2023-02-12T18:54:48;4.79;88.90
65470;DHT22;52067;50.710;14.492;2023-02-12T18:57:14;5.01;89.06
65470;DHT22;52067;50.710;14.492;2023-02-12T18:59:39;5.03;88.92